sensor_id;sensor_type;location;lat;lon;timestamp;P1;durP1;ratioP1;P2;durP2;ratioP2
27201;SDS011;14717;46.924;15.474;2024-02-21T00:00:07;10.15;;;4.85;;
27201;SDS011;14717;46.924;15.474;2024-02-21T00:02:33;12.80;;;5.40;;
27201;SDS011;14717;46.924;15.474;2024-02-21T00:04:58;7.45;;;3.72;;
27201;SDS011;14717;46.924;15.474;2024-02-21T00:07:24;9.32;;;4.93;;
27201;SDS011;14717;46.924;15.474;2024-02-21T00:09:49;6.72;;;3.97;;
27201;SDS011;14717;46.924;15.474;2024-02-21T00:12:14;10.00;;;4.68;;
27201;SDS011;14717;46.924;15.474;2024-02-21T00:14:40;10.35;;;4.65;;
27201;SDS011;14717;46.924;15.474;2024-02-21T00:17:05;9.60;;;4.88;;
27201;SDS011;14717;46.924;15.474;2024-02-21T00:19:31;9.80;;;4.75;;
27201;SDS011;14717;46.924;15.474;2024-02-21T00:21:56;7.97;;;3.95;;
27201;SDS011;14717;46.924;15.474;2024-02-21T00:24:22;8.80;;;3.90;;
27201;SDS011;14717;46.924;15.474;2024-02-21T00:26:47;9.20;;;4.05;;
27201;SDS011;14717;46.924;15.474;2024-02-21T00:29:12;10.27;;;3.63;;
27201;SDS011;14717;46.924;15.474;2024-02-21T00:31:38;10.23;;;3.92;;
27201;SDS011;14717;46.924;15.474;2024-02-21T00:34:03;11.45;;;4.65;;
27201;SDS011;14717;46.924;15.474;2024-02-21T00:36:28;6.63;;;3.97;;
27201;SDS011;14717;46.924;15.474;2024-02-21T00:38:54;7.60;;;4.32;;
27201;SDS011;14717;46.924;15.474;2024-02-21T00:41:19;11.32;;;4.07;;
27201;SDS011;14717;46.924;15.474;2024-02-21T00:43:44;7.28;;;3.70;;
27201;SDS011;14717;46.924;15.474;2024-02-21T00:46:10;7.50;;;3.80;;
27201;SDS011;14717;46.924;15.474;2024-02-21T00:48:35;9.70;;;4.13;;
27201;SDS011;14717;46.924;15.474;2024-02-21T00:51:00;10.77;;;3.80;;
27201;SDS011;14717;46.924;15.474;2024-02-21T00:53:26;9.25;;;3.97;;
27201;SDS011;14717;46.924;15.474;2024-02-21T00:55:51;8.90;;;3.55;;
27201;SDS011;14717;46.924;15.474;2024-02-21T00:58:16;9.82;;;3.55;;
27201;SDS011;14717;46.924;15.474;2024-02-21T01:00:42;7.65;;;3.63;;
27201;SDS011;14717;46.924;15.474;2024-02-21T01:03:07;8.60;;;3.80;;
27201;SDS011;14717;46.924;15.474;2024-02-21T01:05:32;8.35;;;3.72;;
27201;SDS011;14717;46.924;15.474;2024-02-21T01:07:58;8.93;;;4.22;;
27201;SDS011;14717;46.924;15.474;2024-02-21T01:10:23;9.48;;;3.60;;
27201;SDS011;14717;46.924;15.474;2024-02-21T01:12:49;7.13;;;3.30;;
27201;SDS011;14717;46.924;15.474;2024-02-21T01:15:14;9.98;;;4.50;;
27201;SDS011;14717;46.924;15.474;2024-02-21T01:17:39;9.23;;;3.92;;
27201;SDS011;14717;46.924;15.474;2024-02-21T01:20:05;8.63;;;3.90;;
27201;SDS011;14717;46.924;15.474;2024-02-21T01:22:32;6.32;;;3.40;;
27201;SDS011;14717;46.924;15.474;2024-02-21T01:24:57;8.93;;;3.85;;
27201;SDS011;14717;46.924;15.474;2024-02-21T01:27:23;8.30;;;4.28;;
27201;SDS011;14717;46.924;15.474;2024-02-21T01:29:48;9.70;;;4.45;;
27201;SDS011;14717;46.924;15.474;2024-02-21T01:32:14;8.07;;;3.80;;
27201;SDS011;14717;46.924;15.474;2024-02-21T01:34:40;8.65;;;4.30;;
27201;SDS011;14717;46.924;15.474;2024-02-21T01:37:06;10.85;;;3.72;;
27201;SDS011;14717;46.924;15.474;2024-02-21T01:39:32;6.68;;;3.72;;
27201;SDS011;14717;46.924;15.474;2024-02-21T01:41:58;8.02;;;3.53;;
27201;SDS011;14717;46.924;15.474;2024-02-21T01:44:24;8.98;;;3.72;;
27201;SDS011;14717;46.924;15.474;2024-02-21T01:46:49;6.15;;;3.50;;
27201;SDS011;14717;46.924;15.474;2024-02-21T01:49:16;6.57;;;3.60;;
27201;SDS011;14717;46.924;15.474;2024-02-21T01:51:41;8.45;;;3.90;;
27201;SDS011;14717;46.924;15.474;2024-02-21T01:54:07;7.05;;;3.45;;
27201;SDS011;14717;46.924;15.474;2024-02-21T01:56:33;7.75;;;3.55;;
27201;SDS011;14717;46.924;15.474;2024-02-21T01:58:59;7.55;;;3.58;;
27201;SDS011;14717;46.924;15.474;2024-02-21T02:01:24;6.78;;;3.90;;
27201;SDS011;14717;46.924;15.474;2024-02-21T02:03:50;7.30;;;3.95;;
27201;SDS011;14717;46.924;15.474;2024-02-21T02:06:16;7.18;;;3.50;;
27201;SDS011;14717;46.924;15.474;2024-02-21T02:08:41;9.20;;;4.38;;
27201;SDS011;14717;46.924;15.474;2024-02-21T02:11:07;8.70;;;4.00;;
27201;SDS011;14717;46.924;15.474;2024-02-21T02:13:32;7.10;;;3.45;;
27201;SDS011;14717;46.924;15.474;2024-02-21T02:15:58;6.60;;;3.58;;
27201;SDS011;14717;46.924;15.474;2024-02-21T02:18:23;6.32;;;3.22;;
27201;SDS011;14717;46.924;15.474;2024-02-21T02:20:48;7.47;;;3.88;;
27201;SDS011;14717;46.924;15.474;2024-02-21T02:23:29;8.40;;;3.88;;
27201;SDS011;14717;46.924;15.474;2024-02-21T02:25:56;7.95;;;3.35;;
27201;SDS011;14717;46.924;15.474;2024-02-21T02:28:22;7.47;;;3.65;;
27201;SDS011;14717;46.924;15.474;2024-02-21T02:30:47;8.68;;;3.25;;
27201;SDS011;14717;46.924;15.474;2024-02-21T02:33:13;6.95;;;3.42;;
27201;SDS011;14717;46.924;15.474;2024-02-21T02:35:39;5.25;;;3.45;;
27201;SDS011;14717;46.924;15.474;2024-02-21T02:38:05;8.30;;;3.92;;
27201;SDS011;14717;46.924;15.474;2024-02-21T02:40:31;8.90;;;3.67;;
27201;SDS011;14717;46.924;15.474;2024-02-21T02:42:59;10.68;;;3.67;;
27201;SDS011;14717;46.924;15.474;2024-02-21T02:45:25;8.57;;;3.20;;
27201;SDS011;14717;46.924;15.474;2024-02-21T02:47:53;8.30;;;3.65;;
27201;SDS011;14717;46.924;15.474;2024-02-21T02:50:19;6.88;;;3.55;;
27201;SDS011;14717;46.924;15.474;2024-02-21T02:52:45;6.80;;;3.50;;
27201;SDS011;14717;46.924;15.474;2024-02-21T02:55:10;6.32;;;3.13;;
27201;SDS011;14717;46.924;15.474;2024-02-21T02:57:36;6.75;;;3.05;;
27201;SDS011;14717;46.924;15.474;2024-02-21T03:00:01;7.57;;;3.42;;
27201;SDS011;14717;46.924;15.474;2024-02-21T03:02:27;5.97;;;3.88;;
27201;SDS011;14717;46.924;15.474;2024-02-21T03:04:53;10.32;;;4.05;;
27201;SDS011;14717;46.924;15.474;2024-02-21T03:07:19;8.13;;;3.55;;
27201;SDS011;14717;46.924;15.474;2024-02-21T03:09:45;8.60;;;3.80;;
27201;SDS011;14717;46.924;15.474;2024-02-21T03:12:10;7.47;;;4.13;;
27201;SDS011;14717;46.924;15.474;2024-02-21T03:14:36;6.53;;;3.60;;
27201;SDS011;14717;46.924;15.474;2024-02-21T03:17:02;8.77;;;3.70;;
27201;SDS011;14717;46.924;15.474;2024-02-21T03:19:28;8.20;;;3.88;;
27201;SDS011;14717;46.924;15.474;2024-02-21T03:21:54;6.32;;;3.35;;
27201;SDS011;14717;46.924;15.474;2024-02-21T03:24:19;7.47;;;3.83;;
27201;SDS011;14717;46.924;15.474;2024-02-21T03:26:45;6.15;;;3.53;;
27201;SDS011;14717;46.924;15.474;2024-02-21T03:29:14;9.20;;;3.80;;
27201;SDS011;14717;46.924;15.474;2024-02-21T03:31:41;9.10;;;3.30;;
27201;SDS011;14717;46.924;15.474;2024-02-21T03:34:06;7.70;;;3.03;;
27201;SDS011;14717;46.924;15.474;2024-02-21T03:36:32;6.25;;;2.80;;
27201;SDS011;14717;46.924;15.474;2024-02-21T03:38:57;5.90;;;3.17;;
27201;SDS011;14717;46.924;15.474;2024-02-21T03:41:23;6.03;;;3.08;;
27201;SDS011;14717;46.924;15.474;2024-02-21T03:43:48;7.10;;;2.88;;
27201;SDS011;14717;46.924;15.474;2024-02-21T03:46:14;5.00;;;2.80;;
27201;SDS011;14717;46.924;15.474;2024-02-21T03:48:39;5.93;;;2.63;;
27201;SDS011;14717;46.924;15.474;2024-02-21T03:51:05;7.78;;;2.97;;
27201;SDS011;14717;46.924;15.474;2024-02-21T03:53:30;4.80;;;3.35;;
27201;SDS011;14717;46.924;15.474;2024-02-21T03:55:55;6.95;;;3.22;;
27201;SDS011;14717;46.924;15.474;2024-02-21T03:58:21;9.98;;;2.72;;
27201;SDS011;14717;46.924;15.474;2024-02-21T04:00:47;5.55;;;2.75;;
27201;SDS011;14717;46.924;15.474;2024-02-21T04:03:12;4.47;;;2.63;;
27201;SDS011;14717;46.924;15.474;2024-02-21T04:05:38;5.43;;;2.85;;
27201;SDS011;14717;46.924;15.474;2024-02-21T04:08:06;6.70;;;3.10;;
27201;SDS011;14717;46.924;15.474;2024-02-21T04:10:32;5.28;;;2.70;;
27201;SDS011;14717;46.924;15.474;2024-02-21T04:12:58;5.22;;;2.67;;
27201;SDS011;14717;46.924;15.474;2024-02-21T04:15:23;4.75;;;2.65;;
27201;SDS011;14717;46.924;15.474;2024-02-21T04:17:48;4.47;;;2.20;;
27201;SDS011;14717;46.924;15.474;2024-02-21T04:20:14;4.93;;;2.60;;
27201;SDS011;14717;46.924;15.474;2024-02-21T04:22:44;4.80;;;2.63;;
27201;SDS011;14717;46.924;15.474;2024-02-21T04:25:10;4.63;;;2.88;;
27201;SDS011;14717;46.924;15.474;2024-02-21T04:27:36;6.05;;;3.00;;
27201;SDS011;14717;46.924;15.474;2024-02-21T04:30:02;5.10;;;2.83;;
27201;SDS011;14717;46.924;15.474;2024-02-21T04:32:28;7.68;;;3.03;;
27201;SDS011;14717;46.924;15.474;2024-02-21T04:34:53;5.75;;;3.00;;
27201;SDS011;14717;46.924;15.474;2024-02-21T04:37:18;6.03;;;2.90;;
27201;SDS011;14717;46.924;15.474;2024-02-21T04:39:44;4.95;;;2.78;;
27201;SDS011;14717;46.924;15.474;2024-02-21T04:42:09;6.53;;;3.22;;
27201;SDS011;14717;46.924;15.474;2024-02-21T04:44:35;7.20;;;2.65;;
27201;SDS011;14717;46.924;15.474;2024-02-21T04:47:00;8.70;;;2.65;;
27201;SDS011;14717;46.924;15.474;2024-02-21T04:49:26;6.28;;;3.03;;
27201;SDS011;14717;46.924;15.474;2024-02-21T04:51:51;6.15;;;3.03;;
27201;SDS011;14717;46.924;15.474;2024-02-21T04:54:17;6.03;;;3.28;;
27201;SDS011;14717;46.924;15.474;2024-02-21T04:56:42;8.32;;;3.13;;
27201;SDS011;14717;46.924;15.474;2024-02-21T04:59:08;9.95;;;2.95;;
27201;SDS011;14717;46.924;15.474;2024-02-21T05:01:33;6.55;;;2.88;;
27201;SDS011;14717;46.924;15.474;2024-02-21T05:03:58;8.70;;;3.10;;
27201;SDS011;14717;46.924;15.474;2024-02-21T05:06:24;6.32;;;3.25;;
27201;SDS011;14717;46.924;15.474;2024-02-21T05:08:49;8.35;;;3.10;;
27201;SDS011;14717;46.924;15.474;2024-02-21T05:11:14;6.45;;;3.50;;
27201;SDS011;14717;46.924;15.474;2024-02-21T05:13:40;8.60;;;3.95;;
27201;SDS011;14717;46.924;15.474;2024-02-21T05:16:05;8.45;;;3.17;;
27201;SDS011;14717;46.924;15.474;2024-02-21T05:18:31;6.93;;;3.97;;
27201;SDS011;14717;46.924;15.474;2024-02-21T05:20:56;8.25;;;3.40;;
27201;SDS011;14717;46.924;15.474;2024-02-21T05:23:22;8.32;;;3.97;;
27201;SDS011;14717;46.924;15.474;2024-02-21T05:25:47;6.78;;;3.65;;
27201;SDS011;14717;46.924;15.474;2024-02-21T05:28:12;9.45;;;3.60;;
27201;SDS011;14717;46.924;15.474;2024-02-21T05:30:38;7.07;;;3.55;;
27201;SDS011;14717;46.924;15.474;2024-02-21T05:33:04;5.93;;;3.28;;
27201;SDS011;14717;46.924;15.474;2024-02-21T05:35:32;6.18;;;3.65;;
27201;SDS011;14717;46.924;15.474;2024-02-21T05:37:59;6.30;;;3.67;;
27201;SDS011;14717;46.924;15.474;2024-02-21T05:40:24;6.80;;;3.50;;
27201;SDS011;14717;46.924;15.474;2024-02-21T05:42:50;7.68;;;3.63;;
27201;SDS011;14717;46.924;15.474;2024-02-21T05:45:17;7.18;;;3.47;;
27201;SDS011;14717;46.924;15.474;2024-02-21T05:47:42;7.45;;;3.22;;
27201;SDS011;14717;46.924;15.474;2024-02-21T05:50:08;6.45;;;3.40;;
27201;SDS011;14717;46.924;15.474;2024-02-21T05:52:34;7.22;;;3.10;;
27201;SDS011;14717;46.924;15.474;2024-02-21T05:54:59;6.85;;;3.63;;
27201;SDS011;14717;46.924;15.474;2024-02-21T05:57:25;5.10;;;3.33;;
27201;SDS011;14717;46.924;15.474;2024-02-21T05:59:51;6.20;;;3.42;;
27201;SDS011;14717;46.924;15.474;2024-02-21T06:02:16;6.78;;;3.17;;
27201;SDS011;14717;46.924;15.474;2024-02-21T06:04:41;6.18;;;3.10;;
27201;SDS011;14717;46.924;15.474;2024-02-21T06:07:07;7.03;;;3.05;;
27201;SDS011;14717;46.924;15.474;2024-02-21T06:09:33;6.90;;;3.30;;
27201;SDS011;14717;46.924;15.474;2024-02-21T06:11:59;9.70;;;3.92;;
27201;SDS011;14717;46.924;15.474;2024-02-21T06:14:24;8.07;;;3.63;;
27201;SDS011;14717;46.924;15.474;2024-02-21T06:16:49;7.82;;;3.28;;
27201;SDS011;14717;46.924;15.474;2024-02-21T06:19:15;6.85;;;2.97;;
27201;SDS011;14717;46.924;15.474;2024-02-21T06:21:40;6.28;;;3.20;;
27201;SDS011;14717;46.924;15.474;2024-02-21T06:24:06;8.23;;;3.40;;
27201;SDS011;14717;46.924;15.474;2024-02-21T06:26:31;10.82;;;4.22;;
27201;SDS011;14717;46.924;15.474;2024-02-21T06:28:56;7.68;;;3.15;;
27201;SDS011;14717;46.924;15.474;2024-02-21T06:31:22;7.30;;;3.72;;
27201;SDS011;14717;46.924;15.474;2024-02-21T06:33:47;5.88;;;3.40;;
27201;SDS011;14717;46.924;15.474;2024-02-21T06:36:13;8.25;;;3.67;;
27201;SDS011;14717;46.924;15.474;2024-02-21T06:38:38;7.53;;;3.58;;
27201;SDS011;14717;46.924;15.474;2024-02-21T06:41:04;9.30;;;3.80;;
27201;SDS011;14717;46.924;15.474;2024-02-21T06:43:29;8.45;;;3.55;;
27201;SDS011;14717;46.924;15.474;2024-02-21T06:45:54;12.10;;;5.35;;
27201;SDS011;14717;46.924;15.474;2024-02-21T06:48:21;23.05;;;11.20;;
27201;SDS011;14717;46.924;15.474;2024-02-21T06:50:47;15.50;;;6.28;;
27201;SDS011;14717;46.924;15.474;2024-02-21T06:53:12;12.45;;;5.60;;
27201;SDS011;14717;46.924;15.474;2024-02-21T06:55:38;11.27;;;4.95;;
27201;SDS011;14717;46.924;15.474;2024-02-21T06:58:03;11.38;;;4.78;;
27201;SDS011;14717;46.924;15.474;2024-02-21T07:00:29;7.90;;;4.60;;
27201;SDS011;14717;46.924;15.474;2024-02-21T07:02:54;6.30;;;3.53;;
27201;SDS011;14717;46.924;15.474;2024-02-21T07:05:20;7.75;;;3.08;;
27201;SDS011;14717;46.924;15.474;2024-02-21T07:07:45;10.10;;;3.85;;
27201;SDS011;14717;46.924;15.474;2024-02-21T07:10:11;11.38;;;4.32;;
27201;SDS011;14717;46.924;15.474;2024-02-21T07:12:36;9.27;;;3.30;;
27201;SDS011;14717;46.924;15.474;2024-02-21T07:15:04;7.45;;;3.45;;
27201;SDS011;14717;46.924;15.474;2024-02-21T07:17:30;7.80;;;3.88;;
27201;SDS011;14717;46.924;15.474;2024-02-21T07:19:55;8.52;;;3.67;;
27201;SDS011;14717;46.924;15.474;2024-02-21T07:22:24;6.15;;;3.50;;
27201;SDS011;14717;46.924;15.474;2024-02-21T07:24:49;7.13;;;3.53;;
27201;SDS011;14717;46.924;15.474;2024-02-21T07:27:15;8.80;;;3.42;;
27201;SDS011;14717;46.924;15.474;2024-02-21T07:29:41;8.80;;;4.10;;
27201;SDS011;14717;46.924;15.474;2024-02-21T07:32:06;9.40;;;4.25;;
27201;SDS011;14717;46.924;15.474;2024-02-21T07:34:31;9.27;;;4.07;;
27201;SDS011;14717;46.924;15.474;2024-02-21T07:36:57;10.50;;;4.43;;
27201;SDS011;14717;46.924;15.474;2024-02-21T07:39:22;8.88;;;4.40;;
27201;SDS011;14717;46.924;15.474;2024-02-21T07:41:48;9.93;;;4.65;;
27201;SDS011;14717;46.924;15.474;2024-02-21T07:44:14;6.85;;;3.65;;
27201;SDS011;14717;46.924;15.474;2024-02-21T07:46:40;7.68;;;4.05;;
27201;SDS011;14717;46.924;15.474;2024-02-21T07:49:05;10.68;;;3.88;;
27201;SDS011;14717;46.924;15.474;2024-02-21T07:51:30;13.32;;;4.43;;
27201;SDS011;14717;46.924;15.474;2024-02-21T07:53:56;8.02;;;4.07;;
27201;SDS011;14717;46.924;15.474;2024-02-21T07:56:21;6.80;;;3.63;;
27201;SDS011;14717;46.924;15.474;2024-02-21T07:58:46;8.13;;;4.05;;
27201;SDS011;14717;46.924;15.474;2024-02-21T08:01:17;10.50;;;4.35;;
27201;SDS011;14717;46.924;15.474;2024-02-21T08:03:43;9.52;;;4.20;;
27201;SDS011;14717;46.924;15.474;2024-02-21T08:06:11;8.20;;;4.78;;
27201;SDS011;14717;46.924;15.474;2024-02-21T08:08:37;9.65;;;4.35;;
27201;SDS011;14717;46.924;15.474;2024-02-21T08:11:02;10.23;;;4.68;;
27201;SDS011;14717;46.924;15.474;2024-02-21T08:13:28;9.13;;;4.05;;
27201;SDS011;14717;46.924;15.474;2024-02-21T08:15:54;10.38;;;3.95;;
27201;SDS011;14717;46.924;15.474;2024-02-21T08:18:19;7.95;;;4.22;;
27201;SDS011;14717;46.924;15.474;2024-02-21T08:20:45;9.13;;;4.13;;
27201;SDS011;14717;46.924;15.474;2024-02-21T08:23:10;8.88;;;3.65;;
27201;SDS011;14717;46.924;15.474;2024-02-21T08:25:36;8.35;;;3.83;;
27201;SDS011;14717;46.924;15.474;2024-02-21T08:28:01;10.10;;;3.63;;
27201;SDS011;14717;46.924;15.474;2024-02-21T08:30:27;9.70;;;4.05;;
27201;SDS011;14717;46.924;15.474;2024-02-21T08:32:52;7.90;;;3.75;;
27201;SDS011;14717;46.924;15.474;2024-02-21T08:35:19;9.93;;;4.63;;
27201;SDS011;14717;46.924;15.474;2024-02-21T08:37:47;10.50;;;3.88;;
27201;SDS011;14717;46.924;15.474;2024-02-21T08:40:13;7.93;;;4.00;;
27201;SDS011;14717;46.924;15.474;2024-02-21T08:42:42;9.68;;;4.00;;
27201;SDS011;14717;46.924;15.474;2024-02-21T08:45:08;8.57;;;3.80;;
27201;SDS011;14717;46.924;15.474;2024-02-21T08:47:34;10.63;;;4.05;;
27201;SDS011;14717;46.924;15.474;2024-02-21T08:50:02;5.50;;;3.00;;
27201;SDS011;14717;46.924;15.474;2024-02-21T08:52:28;5.57;;;2.85;;
27201;SDS011;14717;46.924;15.474;2024-02-21T08:54:53;4.85;;;2.80;;
27201;SDS011;14717;46.924;15.474;2024-02-21T08:57:19;5.60;;;2.58;;
27201;SDS011;14717;46.924;15.474;2024-02-21T08:59:44;9.85;;;3.03;;
27201;SDS011;14717;46.924;15.474;2024-02-21T09:02:10;8.48;;;3.22;;
27201;SDS011;14717;46.924;15.474;2024-02-21T09:04:35;6.75;;;3.45;;
27201;SDS011;14717;46.924;15.474;2024-02-21T09:07:00;7.13;;;2.90;;
27201;SDS011;14717;46.924;15.474;2024-02-21T09:09:26;6.45;;;3.47;;
27201;SDS011;14717;46.924;15.474;2024-02-21T09:11:53;8.73;;;3.58;;
27201;SDS011;14717;46.924;15.474;2024-02-21T09:14:18;7.88;;;3.60;;
27201;SDS011;14717;46.924;15.474;2024-02-21T09:16:44;10.20;;;2.78;;
27201;SDS011;14717;46.924;15.474;2024-02-21T09:19:09;7.55;;;3.03;;
27201;SDS011;14717;46.924;15.474;2024-02-21T09:24:05;5.65;;;2.28;;
27201;SDS011;14717;46.924;15.474;2024-02-21T09:28:56;6.20;;;2.23;;
27201;SDS011;14717;46.924;15.474;2024-02-21T09:31:21;5.28;;;2.00;;
27201;SDS011;14717;46.924;15.474;2024-02-21T09:33:46;11.18;;;2.47;;
27201;SDS011;14717;46.924;15.474;2024-02-21T09:36:12;4.70;;;2.00;;
27201;SDS011;14717;46.924;15.474;2024-02-21T09:38:39;3.55;;;1.92;;
27201;SDS011;14717;46.924;15.474;2024-02-21T09:41:15;3.40;;;1.52;;
27201;SDS011;14717;46.924;15.474;2024-02-21T09:43:45;8.07;;;2.10;;
27201;SDS011;14717;46.924;15.474;2024-02-21T09:46:15;3.50;;;1.60;;
27201;SDS011;14717;46.924;15.474;2024-02-21T09:51:27;4.78;;;1.95;;
27201;SDS011;14717;46.924;15.474;2024-02-21T09:53:56;5.32;;;1.88;;
27201;SDS011;14717;46.924;15.474;2024-02-21T09:56:22;8.57;;;3.40;;
27201;SDS011;14717;46.924;15.474;2024-02-21T09:58:47;4.88;;;2.30;;
27201;SDS011;14717;46.924;15.474;2024-02-21T10:01:13;6.40;;;2.42;;
27201;SDS011;14717;46.924;15.474;2024-02-21T10:03:38;5.45;;;1.75;;
27201;SDS011;14717;46.924;15.474;2024-02-21T10:06:04;4.60;;;1.75;;
27201;SDS011;14717;46.924;15.474;2024-02-21T10:08:30;5.43;;;2.00;;
27201;SDS011;14717;46.924;15.474;2024-02-21T10:10:55;3.90;;;1.92;;
27201;SDS011;14717;46.924;15.474;2024-02-21T10:13:27;5.28;;;2.42;;
27201;SDS011;14717;46.924;15.474;2024-02-21T10:16:04;7.30;;;2.70;;
27201;SDS011;14717;46.924;15.474;2024-02-21T10:18:31;4.57;;;2.10;;
27201;SDS011;14717;46.924;15.474;2024-02-21T10:21:09;5.00;;;2.10;;
27201;SDS011;14717;46.924;15.474;2024-02-21T10:23:44;6.13;;;1.90;;
27201;SDS011;14717;46.924;15.474;2024-02-21T10:26:11;3.38;;;1.88;;
27201;SDS011;14717;46.924;15.474;2024-02-21T10:28:37;5.95;;;2.33;;
27201;SDS011;14717;46.924;15.474;2024-02-21T10:31:07;6.95;;;1.95;;
27201;SDS011;14717;46.924;15.474;2024-02-21T10:36:08;6.63;;;1.87;;
27201;SDS011;14717;46.924;15.474;2024-02-21T10:38:35;4.90;;;1.73;;
27201;SDS011;14717;46.924;15.474;2024-02-21T10:41:04;3.03;;;1.73;;
27201;SDS011;14717;46.924;15.474;2024-02-21T10:43:37;2.63;;;1.70;;
27201;SDS011;14717;46.924;15.474;2024-02-21T10:46:05;4.18;;;1.70;;
27201;SDS011;14717;46.924;15.474;2024-02-21T10:51:35;4.88;;;1.75;;
27201;SDS011;14717;46.924;15.474;2024-02-21T10:56:42;4.07;;;1.90;;
27201;SDS011;14717;46.924;15.474;2024-02-21T10:59:08;3.65;;;2.00;;
27201;SDS011;14717;46.924;15.474;2024-02-21T11:01:33;3.80;;;2.10;;
27201;SDS011;14717;46.924;15.474;2024-02-21T11:04:03;3.50;;;1.70;;
27201;SDS011;14717;46.924;15.474;2024-02-21T11:06:32;5.07;;;2.00;;
27201;SDS011;14717;46.924;15.474;2024-02-21T11:09:06;3.00;;;1.70;;
27201;SDS011;14717;46.924;15.474;2024-02-21T11:11:33;3.90;;;1.80;;
27201;SDS011;14717;46.924;15.474;2024-02-21T11:14:09;3.50;;;1.70;;
27201;SDS011;14717;46.924;15.474;2024-02-21T11:16:35;3.65;;;1.73;;
27201;SDS011;14717;46.924;15.474;2024-02-21T11:21:47;3.60;;;1.40;;
27201;SDS011;14717;46.924;15.474;2024-02-21T11:24:13;3.95;;;1.90;;
27201;SDS011;14717;46.924;15.474;2024-02-21T11:26:39;2.75;;;1.35;;
27201;SDS011;14717;46.924;15.474;2024-02-21T11:29:07;2.00;;;1.30;;
27201;SDS011;14717;46.924;15.474;2024-02-21T11:31:40;4.20;;;1.58;;
27201;SDS011;14717;46.924;15.474;2024-02-21T11:34:10;2.95;;;1.33;;
27201;SDS011;14717;46.924;15.474;2024-02-21T11:36:36;4.25;;;1.50;;
27201;SDS011;14717;46.924;15.474;2024-02-21T11:39:10;3.45;;;1.55;;
27201;SDS011;14717;46.924;15.474;2024-02-21T11:41:36;3.05;;;1.40;;
27201;SDS011;14717;46.924;15.474;2024-02-21T11:44:01;4.22;;;1.60;;
27201;SDS011;14717;46.924;15.474;2024-02-21T11:46:27;3.05;;;1.40;;
27201;SDS011;14717;46.924;15.474;2024-02-21T11:48:52;4.85;;;1.70;;
27201;SDS011;14717;46.924;15.474;2024-02-21T11:51:21;3.65;;;1.70;;
27201;SDS011;14717;46.924;15.474;2024-02-21T11:53:49;3.65;;;1.60;;
27201;SDS011;14717;46.924;15.474;2024-02-21T11:56:15;5.03;;;1.60;;
27201;SDS011;14717;46.924;15.474;2024-02-21T11:58:41;4.15;;;1.33;;
27201;SDS011;14717;46.924;15.474;2024-02-21T12:01:07;2.30;;;1.20;;
27201;SDS011;14717;46.924;15.474;2024-02-21T12:03:33;2.22;;;1.20;;
27201;SDS011;14717;46.924;15.474;2024-02-21T12:06:01;3.13;;;1.00;;
27201;SDS011;14717;46.924;15.474;2024-02-21T12:08:28;2.33;;;1.20;;
27201;SDS011;14717;46.924;15.474;2024-02-21T12:11:15;3.60;;;1.10;;
27201;SDS011;14717;46.924;15.474;2024-02-21T12:14:01;3.67;;;1.27;;
27201;SDS011;14717;46.924;15.474;2024-02-21T12:16:29;2.28;;;1.05;;
27201;SDS011;14717;46.924;15.474;2024-02-21T12:18:55;2.92;;;1.40;;
27201;SDS011;14717;46.924;15.474;2024-02-21T12:21:29;3.13;;;1.35;;
27201;SDS011;14717;46.924;15.474;2024-02-21T12:23:55;2.75;;;1.25;;
27201;SDS011;14717;46.924;15.474;2024-02-21T12:26:21;1.77;;;1.02;;
27201;SDS011;14717;46.924;15.474;2024-02-21T12:31:12;2.43;;;1.30;;
27201;SDS011;14717;46.924;15.474;2024-02-21T12:33:38;1.17;;;1.05;;
27201;SDS011;14717;46.924;15.474;2024-02-21T12:36:04;5.88;;;1.35;;
27201;SDS011;14717;46.924;15.474;2024-02-21T12:38:29;1.77;;;1.00;;
27201;SDS011;14717;46.924;15.474;2024-02-21T12:40:55;2.20;;;1.10;;
27201;SDS011;14717;46.924;15.474;2024-02-21T12:43:22;4.80;;;1.15;;
27201;SDS011;14717;46.924;15.474;2024-02-21T12:48:13;1.60;;;0.90;;
27201;SDS011;14717;46.924;15.474;2024-02-21T12:50:40;4.13;;;1.55;;
27201;SDS011;14717;46.924;15.474;2024-02-21T12:53:12;0.90;;;0.70;;
27201;SDS011;14717;46.924;15.474;2024-02-21T12:58:03;1.35;;;0.80;;
27201;SDS011;14717;46.924;15.474;2024-02-21T13:00:32;2.67;;;0.93;;
27201;SDS011;14717;46.924;15.474;2024-02-21T13:05:23;2.35;;;0.93;;
27201;SDS011;14717;46.924;15.474;2024-02-21T13:07:48;3.25;;;1.15;;
27201;SDS011;14717;46.924;15.474;2024-02-21T13:12:39;3.03;;;1.00;;
27201;SDS011;14717;46.924;15.474;2024-02-21T13:15:05;2.17;;;1.00;;
27201;SDS011;14717;46.924;15.474;2024-02-21T13:19:56;1.55;;;1.02;;
27201;SDS011;14717;46.924;15.474;2024-02-21T13:24:50;1.98;;;0.80;;
27201;SDS011;14717;46.924;15.474;2024-02-21T13:29:41;2.13;;;1.00;;
27201;SDS011;14717;46.924;15.474;2024-02-21T13:34:32;1.88;;;1.10;;
27201;SDS011;14717;46.924;15.474;2024-02-21T13:36:57;1.50;;;0.88;;
27201;SDS011;14717;46.924;15.474;2024-02-21T13:39:24;1.88;;;0.95;;
27201;SDS011;14717;46.924;15.474;2024-02-21T13:44:15;1.98;;;0.88;;
27201;SDS011;14717;46.924;15.474;2024-02-21T13:46:40;1.83;;;1.00;;
27201;SDS011;14717;46.924;15.474;2024-02-21T13:51:32;2.63;;;1.02;;
27201;SDS011;14717;46.924;15.474;2024-02-21T13:54:03;1.58;;;0.93;;
27201;SDS011;14717;46.924;15.474;2024-02-21T13:56:30;1.83;;;0.98;;
27201;SDS011;14717;46.924;15.474;2024-02-21T13:58:56;2.22;;;0.95;;
27201;SDS011;14717;46.924;15.474;2024-02-21T14:01:22;1.88;;;1.08;;
27201;SDS011;14717;46.924;15.474;2024-02-21T14:06:13;2.37;;;0.87;;
27201;SDS011;14717;46.924;15.474;2024-02-21T14:08:38;1.95;;;1.00;;
27201;SDS011;14717;46.924;15.474;2024-02-21T14:13:31;1.67;;;1.00;;
27201;SDS011;14717;46.924;15.474;2024-02-21T14:18:21;3.50;;;1.20;;
27201;SDS011;14717;46.924;15.474;2024-02-21T14:23:12;1.45;;;1.00;;
27201;SDS011;14717;46.924;15.474;2024-02-21T14:28:04;0.90;;;0.80;;
27201;SDS011;14717;46.924;15.474;2024-02-21T14:32:55;1.63;;;0.80;;
27201;SDS011;14717;46.924;15.474;2024-02-21T14:37:46;1.90;;;0.90;;
27201;SDS011;14717;46.924;15.474;2024-02-21T14:40:13;2.30;;;1.10;;
27201;SDS011;14717;46.924;15.474;2024-02-21T14:45:04;1.43;;;0.90;;
27201;SDS011;14717;46.924;15.474;2024-02-21T14:47:30;2.22;;;1.10;;
27201;SDS011;14717;46.924;15.474;2024-02-21T14:49:56;1.70;;;0.90;;
27201;SDS011;14717;46.924;15.474;2024-02-21T14:54:49;2.13;;;0.95;;
27201;SDS011;14717;46.924;15.474;2024-02-21T14:57:16;1.27;;;0.90;;
27201;SDS011;14717;46.924;15.474;2024-02-21T15:02:07;1.60;;;1.00;;
27201;SDS011;14717;46.924;15.474;2024-02-21T15:04:34;2.13;;;1.17;;
27201;SDS011;14717;46.924;15.474;2024-02-21T15:09:26;3.25;;;1.67;;
27201;SDS011;14717;46.924;15.474;2024-02-21T15:14:16;4.93;;;2.30;;
27201;SDS011;14717;46.924;15.474;2024-02-21T15:19:07;5.10;;;2.40;;
27201;SDS011;14717;46.924;15.474;2024-02-21T15:21:33;4.65;;;2.42;;
27201;SDS011;14717;46.924;15.474;2024-02-21T15:26:25;6.93;;;1.88;;
27201;SDS011;14717;46.924;15.474;2024-02-21T15:31:20;3.07;;;1.50;;
27201;SDS011;14717;46.924;15.474;2024-02-21T15:33:47;2.42;;;1.25;;
27201;SDS011;14717;46.924;15.474;2024-02-21T15:38:39;3.65;;;1.55;;
27201;SDS011;14717;46.924;15.474;2024-02-21T15:41:05;2.83;;;1.40;;
27201;SDS011;14717;46.924;15.474;2024-02-21T15:43:30;4.97;;;1.83;;
27201;SDS011;14717;46.924;15.474;2024-02-21T15:45:56;3.33;;;1.60;;
27201;SDS011;14717;46.924;15.474;2024-02-21T15:48:21;2.67;;;1.70;;
27201;SDS011;14717;46.924;15.474;2024-02-21T15:50:48;3.28;;;1.63;;